createdAt,value
2023-01-19T00:00:22.681Z,4.80
2023-01-19T00:03:16.230Z,4.70
2023-01-19T00:06:08.521Z,4.70
2023-01-19T00:08:57.292Z,4.70
2023-01-19T00:11:46.737Z,4.70
2023-01-19T00:14:36.084Z,4.60
2023-01-19T00:17:24.785Z,4.60
2023-01-19T00:20:13.772Z,4.70
2023-01-19T00:23:04.952Z,4.70
2023-01-19T00:25:53.699Z,4.70
2023-01-19T00:28:44.414Z,4.80
2023-01-19T00:31:34.176Z,4.80
2023-01-19T00:34:22.914Z,4.90
2023-01-19T00:37:11.835Z,5.10
2023-01-19T00:40:02.030Z,5.10
2023-01-19T00:42:51.075Z,5.10
2023-01-19T00:45:40.071Z,5.00
2023-01-19T00:48:28.652Z,5.00
2023-01-19T00:51:19.672Z,5.00
2023-01-19T00:54:10.447Z,5.10
2023-01-19T00:57:00.450Z,5.10
2023-01-19T00:59:49.209Z,5.10
2023-01-19T01:02:38.106Z,5.10
2023-01-19T01:05:26.895Z,5.20
2023-01-19T01:08:15.588Z,5.20
2023-01-19T01:11:06.589Z,5.10
2023-01-19T01:13:56.803Z,5.30
2023-01-19T01:16:47.538Z,5.20
2023-01-19T01:19:36.340Z,5.00
2023-01-19T01:22:25.000Z,5.00
2023-01-19T01:25:14.312Z,5.10
2023-01-19T01:28:03.430Z,5.10
2023-01-19T01:30:56.287Z,5.20
2023-01-19T01:33:44.856Z,5.20
2023-01-19T01:36:33.878Z,5.20
2023-01-19T01:39:23.130Z,5.30
2023-01-19T01:42:18.890Z,5.20
2023-01-19T01:45:26.683Z,5.20
2023-01-19T01:48:22.366Z,5.20
2023-01-19T01:51:27.045Z,5.20
2023-01-19T01:54:20.529Z,5.20
2023-01-19T01:57:12.442Z,5.20
2023-01-19T02:00:03.611Z,5.30
2023-01-19T02:02:55.233Z,5.30
2023-01-19T02:05:45.912Z,5.30
2023-01-19T02:08:56.755Z,5.10
2023-01-19T02:12:02.984Z,5.30
2023-01-19T02:14:51.587Z,5.00
2023-01-19T02:17:40.211Z,5.00
2023-01-19T02:20:32.571Z,5.10
2023-01-19T02:23:31.953Z,5.20
2023-01-19T02:26:23.136Z,5.20
2023-01-19T02:29:14.124Z,5.00
2023-01-19T02:32:03.271Z,4.90
2023-01-19T02:34:52.285Z,5.00
2023-01-19T02:37:42.555Z,5.00
2023-01-19T02:40:33.874Z,5.00
2023-01-19T02:43:24.383Z,5.00
2023-01-19T02:46:15.673Z,5.00
2023-01-19T02:49:04.377Z,4.90
2023-01-19T02:51:53.218Z,4.80
2023-01-19T02:54:55.630Z,4.90
2023-01-19T02:57:57.224Z,5.00
2023-01-19T03:00:53.405Z,5.10
2023-01-19T03:03:52.327Z,5.00
2023-01-19T03:06:45.880Z,5.10
2023-01-19T03:09:41.521Z,5.00
2023-01-19T03:12:40.912Z,5.10
2023-01-19T03:15:38.145Z,5.30
2023-01-19T03:18:31.227Z,5.30
2023-01-19T03:21:21.965Z,5.40
2023-01-19T03:24:13.487Z,5.40
2023-01-19T03:27:06.790Z,5.40
2023-01-19T03:29:59.044Z,5.20
2023-01-19T03:32:52.749Z,5.20
2023-01-19T03:35:45.686Z,5.40
2023-01-19T03:38:38.627Z,5.30
2023-01-19T03:41:29.107Z,5.30
2023-01-19T03:44:18.015Z,5.20
2023-01-19T03:47:08.871Z,5.30
2023-01-19T03:50:03.019Z,5.00
2023-01-19T03:53:03.283Z,5.00
2023-01-19T03:55:54.316Z,5.00
2023-01-19T03:58:43.489Z,5.10
2023-01-19T04:01:32.279Z,5.00
2023-01-19T04:04:20.962Z,5.00
2023-01-19T04:07:12.045Z,5.00
2023-01-19T04:10:00.707Z,5.00
2023-01-19T04:12:49.839Z,5.20
2023-01-19T04:15:38.904Z,5.20
2023-01-19T04:18:27.641Z,5.00
2023-01-19T04:21:16.824Z,5.10
2023-01-19T04:24:07.468Z,4.90
2023-01-19T04:26:56.069Z,5.00
2023-01-19T04:29:45.103Z,4.80
2023-01-19T04:32:34.157Z,4.90
2023-01-19T04:35:23.793Z,4.70
2023-01-19T04:38:12.481Z,4.50
2023-01-19T04:41:02.580Z,4.50
2023-01-19T04:43:51.181Z,4.50
2023-01-19T04:46:39.879Z,4.60
2023-01-19T04:49:28.925Z,4.70
2023-01-19T04:52:17.556Z,4.80
2023-01-19T04:55:07.635Z,4.70
2023-01-19T04:57:57.984Z,4.70
2023-01-19T05:00:46.560Z,4.60
2023-01-19T05:03:35.341Z,4.60
2023-01-19T05:06:23.983Z,4.70
2023-01-19T05:09:15.214Z,4.80
2023-01-19T05:12:03.861Z,4.90
2023-01-19T05:14:53.953Z,4.80
2023-01-19T05:17:42.976Z,4.80
2023-01-19T05:20:31.692Z,4.80
2023-01-19T05:23:20.321Z,4.80
2023-01-19T05:26:09.665Z,4.90
2023-01-19T05:28:59.304Z,4.70
2023-01-19T05:31:49.548Z,4.80
2023-01-19T05:34:38.231Z,4.70
2023-01-19T05:37:26.979Z,4.50
2023-01-19T05:40:15.586Z,4.50
2023-01-19T05:43:05.418Z,4.60
2023-01-19T05:45:54.237Z,4.80
2023-01-19T05:48:45.171Z,4.80
2023-01-19T05:51:37.902Z,4.70
2023-01-19T05:54:26.685Z,4.70
2023-01-19T05:57:15.732Z,4.70
2023-01-19T06:00:05.827Z,4.70
2023-01-19T06:02:57.843Z,4.60
2023-01-19T06:05:47.919Z,4.60
2023-01-19T06:08:36.540Z,4.70
2023-01-19T06:11:26.175Z,4.60
2023-01-19T06:14:15.075Z,4.70
2023-01-19T06:17:03.821Z,4.70
2023-01-19T06:19:52.428Z,4.80
2023-01-19T06:22:42.429Z,4.90
2023-01-19T06:25:31.461Z,4.90
2023-01-19T06:28:20.080Z,4.90
2023-01-19T06:31:08.986Z,4.80
2023-01-19T06:33:57.574Z,4.80
2023-01-19T06:36:46.508Z,4.90
2023-01-19T06:39:38.018Z,4.90
2023-01-19T06:42:29.178Z,4.80
2023-01-19T06:45:18.219Z,4.70
2023-01-19T06:48:07.788Z,4.70
2023-01-19T06:50:58.706Z,4.90
2023-01-19T06:53:48.936Z,4.90
2023-01-19T06:56:39.202Z,4.80
2023-01-19T06:59:27.960Z,4.90
2023-01-19T07:02:26.808Z,4.90
2023-01-19T07:05:17.818Z,5.00
2023-01-19T07:08:09.415Z,5.00
2023-01-19T07:11:26.650Z,4.80
2023-01-19T07:14:11.811Z,4.90
2023-01-19T07:17:01.747Z,5.00
2023-01-19T07:19:50.299Z,5.00
2023-01-19T07:22:38.982Z,4.80
2023-01-19T07:25:28.756Z,4.60
2023-01-19T07:28:17.819Z,4.80
2023-01-19T07:31:07.991Z,4.90
2023-01-19T07:33:57.089Z,5.00
2023-01-19T07:36:45.896Z,4.90
2023-01-19T07:39:36.768Z,5.00
2023-01-19T07:42:25.542Z,4.80
2023-01-19T07:45:15.248Z,4.90
2023-01-19T07:48:06.096Z,4.90
2023-01-19T07:50:55.024Z,4.80
2023-01-19T07:53:43.662Z,5.00
2023-01-19T07:56:33.875Z,5.10
2023-01-19T07:59:25.302Z,5.20
2023-01-19T08:02:15.651Z,5.20
2023-01-19T08:05:07.647Z,5.10
2023-01-19T08:07:57.714Z,5.00
2023-01-19T08:10:46.694Z,5.00
2023-01-19T08:13:35.728Z,5.00
2023-01-19T08:16:25.043Z,5.00
2023-01-19T08:19:14.042Z,5.10
2023-01-19T08:22:04.639Z,4.80
2023-01-19T08:24:55.001Z,5.00
2023-01-19T08:27:44.741Z,5.20
2023-01-19T08:30:34.243Z,5.00
2023-01-19T08:33:24.284Z,5.20
2023-01-19T08:36:13.288Z,5.10
2023-01-19T08:39:03.877Z,4.90
2023-01-19T08:41:53.232Z,5.10
2023-01-19T08:44:57.295Z,5.10
2023-01-19T08:47:47.870Z,5.00
2023-01-19T08:50:38.796Z,4.70
2023-01-19T08:53:27.753Z,4.70
2023-01-19T08:56:20.566Z,4.60
2023-01-19T08:59:12.475Z,4.80
2023-01-19T09:02:02.600Z,4.90
2023-01-19T09:04:51.945Z,4.80
2023-01-19T09:07:41.943Z,4.90
2023-01-19T09:10:36.285Z,5.00
2023-01-19T09:13:27.132Z,4.60
2023-01-19T09:16:16.490Z,4.50
2023-01-19T09:19:08.689Z,4.60
2023-01-19T09:21:59.277Z,4.60
2023-01-19T09:24:48.131Z,4.60
2023-01-19T09:27:37.308Z,4.50
2023-01-19T09:30:27.942Z,4.70
2023-01-19T09:33:19.363Z,4.90
2023-01-19T09:36:09.177Z,5.00
2023-01-19T09:38:58.023Z,5.10
2023-01-19T09:41:51.439Z,4.70
2023-01-19T09:44:42.398Z,4.70
2023-01-19T09:47:38.159Z,4.80
2023-01-19T09:50:30.301Z,4.70
2023-01-19T09:53:24.833Z,4.50
2023-01-19T09:56:19.062Z,4.80
2023-01-19T09:59:20.838Z,5.10
2023-01-19T10:02:25.407Z,4.80
2023-01-19T10:05:31.831Z,4.90
2023-01-19T10:08:31.082Z,5.00
2023-01-19T10:11:51.585Z,5.20
2023-01-19T10:14:48.081Z,5.20
2023-01-19T10:17:45.983Z,5.00
2023-01-19T10:20:41.955Z,4.90
2023-01-19T10:23:45.097Z,5.00
2023-01-19T10:26:41.108Z,4.80
2023-01-19T10:29:35.457Z,4.60
2023-01-19T10:32:26.408Z,4.70
2023-01-19T10:35:23.557Z,4.70
2023-01-19T10:38:20.077Z,4.70
2023-01-19T10:41:16.054Z,4.70
2023-01-19T10:44:06.622Z,4.60
2023-01-19T10:46:59.961Z,4.70
2023-01-19T10:49:49.857Z,4.90
2023-01-19T10:52:41.569Z,4.70
2023-01-19T10:55:34.128Z,4.70
2023-01-19T10:58:31.629Z,4.90
2023-01-19T11:01:24.018Z,5.00
2023-01-19T11:04:30.426Z,4.90
2023-01-19T11:07:22.631Z,5.00
2023-01-19T11:10:24.294Z,4.90
2023-01-19T11:13:16.093Z,4.60
2023-01-19T11:16:09.164Z,4.90
2023-01-19T11:19:02.231Z,4.90
2023-01-19T11:21:51.445Z,4.90
2023-01-19T11:24:41.277Z,4.70
2023-01-19T11:27:33.284Z,4.90
2023-01-19T11:30:27.568Z,4.90
2023-01-19T11:33:27.188Z,5.10
2023-01-19T11:36:21.174Z,5.20
2023-01-19T11:39:24.181Z,5.20
2023-01-19T11:42:14.583Z,5.20
2023-01-19T11:45:09.076Z,5.00
2023-01-19T11:48:02.399Z,5.20
2023-01-19T11:50:52.038Z,5.00
2023-01-19T11:53:44.441Z,4.90
2023-01-19T11:56:33.705Z,5.00
2023-01-19T11:59:25.346Z,4.80
2023-01-19T12:02:24.645Z,4.80
2023-01-19T12:05:21.087Z,4.90
2023-01-19T12:08:18.313Z,5.00
2023-01-19T12:11:11.087Z,5.10
2023-01-19T12:14:01.450Z,4.80
2023-01-19T12:16:54.575Z,4.90
2023-01-19T12:19:49.908Z,4.90
2023-01-19T12:22:50.315Z,5.10
2023-01-19T12:26:04.416Z,5.00
2023-01-19T12:28:57.663Z,5.10
2023-01-19T12:31:49.376Z,5.00
2023-01-19T12:34:46.851Z,4.90
2023-01-19T12:37:43.656Z,5.10
2023-01-19T12:40:35.746Z,5.30
2023-01-19T12:43:25.387Z,5.30
2023-01-19T12:46:22.340Z,5.10
2023-01-19T12:49:19.260Z,5.20
2023-01-19T12:52:33.600Z,5.20
2023-01-19T12:55:27.431Z,5.20
2023-01-19T12:58:19.362Z,5.30
2023-01-19T13:01:17.518Z,5.20
2023-01-19T13:04:09.744Z,5.00
2023-01-19T13:07:10.969Z,4.70
2023-01-19T13:10:01.056Z,4.90
2023-01-19T13:13:18.173Z,4.80
2023-01-19T13:16:40.731Z,4.90
2023-01-19T13:19:50.036Z,4.90
2023-01-19T13:23:16.724Z,4.80
2023-01-19T13:26:07.873Z,5.10
2023-01-19T13:29:04.586Z,4.90
2023-01-19T13:32:02.555Z,4.90
2023-01-19T13:34:57.734Z,5.00
2023-01-19T13:37:47.744Z,5.10
2023-01-19T13:40:40.282Z,4.90
2023-01-19T13:43:36.404Z,4.90
2023-01-19T13:46:30.873Z,4.70
2023-01-19T13:49:24.063Z,4.80
2023-01-19T13:52:18.753Z,4.70
2023-01-19T13:55:14.929Z,4.80
2023-01-19T13:58:04.121Z,4.90
2023-01-19T14:00:53.242Z,4.70
2023-01-19T14:03:46.795Z,4.70
2023-01-19T14:06:40.096Z,4.80
2023-01-19T14:09:32.370Z,4.60
2023-01-19T14:12:22.268Z,4.60
2023-01-19T14:15:15.484Z,4.80
2023-01-19T14:18:27.009Z,4.80
2023-01-19T14:21:18.980Z,4.80
2023-01-19T14:24:10.350Z,4.80
2023-01-19T14:27:12.254Z,4.70
2023-01-19T14:30:21.638Z,4.90
2023-01-19T14:33:35.178Z,4.80
2023-01-19T14:36:39.630Z,4.70
2023-01-19T14:39:33.727Z,4.90
2023-01-19T14:42:41.538Z,5.00
2023-01-19T14:45:41.110Z,4.60
2023-01-19T14:48:31.497Z,4.70
2023-01-19T14:51:23.390Z,4.80
2023-01-19T14:54:19.287Z,4.80
2023-01-19T14:57:13.898Z,4.70
2023-01-19T15:00:07.765Z,4.60
2023-01-19T15:03:00.314Z,4.70
2023-01-19T15:05:50.688Z,4.90
2023-01-19T15:08:41.002Z,4.90
2023-01-19T15:11:34.050Z,4.80
2023-01-19T15:14:23.389Z,4.70
2023-01-19T15:17:18.995Z,4.80
2023-01-19T15:20:15.577Z,4.80
2023-01-19T15:23:04.443Z,4.70
2023-01-19T15:25:53.766Z,4.60
2023-01-19T15:28:44.701Z,4.60
2023-01-19T15:31:33.892Z,4.70
2023-01-19T15:34:22.884Z,4.70
2023-01-19T15:37:14.803Z,4.80
2023-01-19T15:40:03.890Z,4.80
2023-01-19T15:42:52.651Z,4.90
2023-01-19T15:45:44.931Z,5.00
2023-01-19T15:48:34.040Z,4.80
2023-01-19T15:51:25.283Z,4.90
2023-01-19T15:54:15.670Z,4.70
2023-01-19T15:57:04.619Z,4.80
2023-01-19T15:59:53.483Z,4.80
2023-01-19T16:02:44.201Z,4.90
2023-01-19T16:05:43.995Z,4.60
2023-01-19T16:08:33.358Z,4.80
2023-01-19T16:11:22.519Z,4.60
2023-01-19T16:14:11.976Z,4.60
2023-01-19T16:17:01.975Z,4.70
2023-01-19T16:19:52.530Z,4.70
2023-01-19T16:22:41.717Z,4.70
2023-01-19T16:25:33.210Z,4.80
2023-01-19T16:28:22.346Z,5.00
2023-01-19T16:31:11.524Z,4.90
2023-01-19T16:34:01.051Z,5.00
2023-01-19T16:36:51.828Z,5.10
2023-01-19T16:39:41.249Z,5.10
2023-01-19T16:42:33.833Z,4.90
2023-01-19T16:45:23.579Z,4.80
2023-01-19T16:48:12.976Z,4.80
2023-01-19T16:51:04.411Z,4.60
2023-01-19T16:53:55.298Z,4.70
2023-01-19T16:56:44.382Z,4.90
2023-01-19T16:59:33.826Z,4.90
2023-01-19T17:02:22.876Z,4.80
2023-01-19T17:05:12.154Z,4.60
2023-01-19T17:08:01.673Z,4.70
2023-01-19T17:10:55.856Z,4.60
2023-01-19T17:13:45.456Z,4.40
2023-01-19T17:16:36.397Z,4.40
2023-01-19T17:19:25.266Z,4.50
2023-01-19T17:22:15.465Z,4.50
2023-01-19T17:25:04.940Z,4.30
2023-01-19T17:27:59.028Z,4.60
2023-01-19T17:30:53.443Z,4.50
2023-01-19T17:33:45.627Z,4.50
2023-01-19T17:36:35.539Z,4.70
2023-01-19T17:39:29.856Z,4.50
2023-01-19T17:42:19.745Z,4.40
2023-01-19T17:45:13.391Z,4.20
2023-01-19T17:48:03.554Z,4.40
2023-01-19T17:50:54.652Z,4.40
2023-01-19T17:53:44.746Z,4.60
2023-01-19T17:56:38.585Z,4.70
2023-01-19T17:59:30.952Z,4.70
2023-01-19T18:02:25.107Z,4.60
2023-01-19T18:05:15.641Z,4.70
2023-01-19T18:08:05.473Z,4.60
2023-01-19T18:10:57.397Z,4.80
2023-01-19T18:13:51.288Z,4.90
2023-01-19T18:16:43.558Z,4.80
2023-01-19T18:19:35.547Z,4.50
2023-01-19T18:22:27.657Z,4.50
2023-01-19T18:25:21.366Z,4.50
2023-01-19T18:28:11.362Z,4.50
2023-01-19T18:31:01.237Z,4.60
2023-01-19T18:33:51.391Z,4.50
2023-01-19T18:36:42.106Z,4.60
2023-01-19T18:39:34.651Z,4.50
2023-01-19T18:42:23.959Z,4.30
2023-01-19T18:45:13.903Z,4.50
2023-01-19T18:48:03.284Z,4.50
2023-01-19T18:50:52.899Z,4.50
2023-01-19T18:53:45.528Z,4.60
2023-01-19T18:56:38.375Z,4.70
2023-01-19T18:59:31.200Z,4.70
2023-01-19T19:02:24.969Z,4.40
2023-01-19T19:05:14.719Z,4.30
2023-01-19T19:08:08.641Z,4.40
2023-01-19T19:13:58.528Z,4.50
2023-01-19T19:16:47.586Z,4.60
2023-01-19T19:19:36.607Z,4.50
2023-01-19T19:22:25.672Z,4.60
2023-01-19T19:25:17.524Z,4.60
2023-01-19T19:28:07.753Z,4.40
2023-01-19T19:31:04.291Z,4.30
2023-01-19T19:33:53.313Z,4.40
2023-01-19T19:36:42.363Z,4.60
2023-01-19T19:39:31.506Z,4.50
2023-01-19T19:42:20.597Z,4.70
2023-01-19T19:45:12.570Z,4.50
2023-01-19T19:48:01.441Z,4.50
2023-01-19T19:50:50.571Z,4.40
2023-01-19T19:53:40.641Z,4.40
2023-01-19T19:56:31.317Z,4.50
2023-01-19T19:59:20.387Z,4.50
2023-01-19T20:02:12.959Z,4.40
2023-01-19T20:05:02.019Z,4.40
2023-01-19T20:07:50.976Z,4.40
2023-01-19T20:10:39.941Z,4.40
2023-01-19T20:13:29.325Z,4.50
2023-01-19T20:16:20.374Z,4.50
2023-01-19T20:19:10.774Z,4.60
2023-01-19T20:21:59.831Z,4.60
2023-01-19T20:24:51.452Z,4.50
2023-01-19T20:27:40.483Z,4.50
2023-01-19T20:30:31.420Z,4.50
2023-01-19T20:33:20.452Z,4.50
2023-01-19T20:36:12.172Z,4.70
2023-01-19T20:39:02.981Z,4.80
2023-01-19T20:41:52.698Z,4.80
2023-01-19T20:44:42.129Z,4.90
2023-01-19T20:47:31.698Z,4.90
2023-01-19T20:50:20.992Z,4.80
2023-01-19T20:53:11.567Z,4.80
2023-01-19T20:56:06.010Z,4.90
2023-01-19T20:58:55.161Z,4.80
2023-01-19T21:01:44.582Z,4.80
2023-01-19T21:04:33.618Z,4.70
2023-01-19T21:07:22.591Z,4.80
2023-01-19T21:10:13.606Z,4.80
2023-01-19T21:13:03.306Z,4.80
2023-01-19T21:15:52.380Z,4.90
2023-01-19T21:18:41.722Z,5.00
2023-01-19T21:21:33.705Z,5.00
2023-01-19T21:24:22.943Z,4.90
2023-01-19T21:27:13.269Z,4.90
2023-01-19T21:30:02.534Z,5.00
2023-01-19T21:32:51.521Z,4.80
2023-01-19T21:35:40.647Z,4.90
2023-01-19T21:38:31.281Z,5.00
2023-01-19T21:41:20.495Z,5.00
2023-01-19T21:44:12.867Z,5.00
2023-01-19T21:47:02.166Z,4.90
2023-01-19T21:49:51.339Z,4.90
2023-01-19T21:52:40.506Z,4.90
2023-01-19T21:55:30.118Z,4.90
2023-01-19T21:58:18.939Z,4.90
2023-01-19T22:01:11.146Z,4.90
2023-01-19T22:04:00.772Z,5.10
2023-01-19T22:06:49.716Z,5.10
2023-01-19T22:09:38.845Z,5.10
2023-01-19T22:12:27.843Z,5.00
2023-01-19T22:15:17.145Z,5.00
2023-01-19T22:18:09.903Z,4.90
2023-01-19T22:21:11.632Z,4.80
2023-01-19T22:24:02.819Z,4.90
2023-01-19T22:26:51.768Z,4.90
2023-01-19T22:29:40.692Z,4.90
2023-01-19T22:32:32.593Z,4.90
2023-01-19T22:35:23.465Z,4.90
2023-01-19T22:38:12.317Z,4.80
2023-01-19T22:41:01.548Z,4.80
2023-01-19T22:43:52.145Z,4.80
2023-01-19T22:46:40.816Z,4.60
2023-01-19T22:49:30.290Z,4.70
2023-01-19T22:52:20.393Z,4.70
2023-01-19T22:55:09.699Z,4.80
2023-01-19T22:57:58.328Z,4.90
2023-01-19T23:00:47.097Z,4.70
2023-01-19T23:03:35.961Z,4.70
2023-01-19T23:06:27.124Z,4.70
2023-01-19T23:09:17.541Z,4.80
2023-01-19T23:12:06.666Z,4.80
2023-01-19T23:14:55.432Z,4.70
2023-01-19T23:17:47.363Z,4.70
2023-01-19T23:20:36.293Z,4.60
2023-01-19T23:23:24.965Z,4.70
2023-01-19T23:26:16.817Z,4.70
2023-01-19T23:29:07.006Z,4.60
2023-01-19T23:31:56.360Z,4.60
2023-01-19T23:34:45.060Z,4.70
2023-01-19T23:37:33.737Z,4.70
2023-01-19T23:40:22.490Z,4.60
2023-01-19T23:43:12.621Z,4.60
2023-01-19T23:46:04.392Z,4.60
2023-01-19T23:48:53.179Z,4.60
2023-01-19T23:51:43.023Z,4.60
2023-01-19T23:54:31.853Z,4.50
2023-01-19T23:57:20.762Z,4.60
